MMCP/CPE METAR and TAF weather

Enter ICAO airport designator
Station Type Date Time Source
MMCP METAR 2019/08/18 03:44 UTC NOAA

MMCP 180344Z 12010KT 7SM FEW140 25/24 A2991 RMK 8/030 HZY


Station Type Date Time Source
MMCP Decoded METAR 2019/08/18 03:44 UTC NOAA

Station name not available
Aug 17, 2019 - 11:44 PM EDT / 2019.08.18 0344 UTC
Wind: from the ESE (120 degrees) at 12 MPH (10 KT):0
Visibility: 7 mile(s):0
Sky conditions: mostly clear
Temperature: 77 F (25 C)
Dew Point: 75 F (24 C)
Relative Humidity: 94%
Pressure (altimeter): 29.91 in. Hg (1012 hPa)
ob: MMCP 180344Z 12010KT 7SM FEW140 25/24 A2991 RMK 8/030 HZY
cycle: 3

Station Type Date Time Source
MMCP TAF 2019/08/18 06:19 UTC NOAA

TAF MMCP 180511Z 1806/1906 12010KT P6SM SCT120
FM181800 12012KT P6SM SCT030 SCT080
BECMG 1903/1905 10005KT

Example: see airport list